Time;durP1;ratioP1;P1;durP2;ratioP2;P2;SDS_P1;SDS_P2;PMS_P1;PMS_P2;Temp;Humidity;BMP_temperature;BMP_pressure;BME280_temperature;BME280_humidity;BME280_pressure;Samples;Min_cycle;Max_cycle;Signal;HPM_P1;HPM_P2
2022/05/26 00:00:27;;;;;;;9.93;7.47;;;;;;;13.68;89.76;101515.47;1039654;28;20701;-79
2022/05/26 00:01:00;;;;;;;9.50;7.10;;;;;;;13.67;90.20;101511.16;1043108;28;20657;-79
2022/05/26 00:01:32;;;;;;;9.77;7.55;;;;;;;13.63;90.12;101509.97;1043244;28;21220;-79
2022/05/26 00:02:04;;;;;;;10.10;7.35;;;;;;;13.65;90.19;101510.56;1043357;28;20291;-79
2022/05/26 00:02:35;;;;;;;8.65;7.28;;;;;;;13.63;89.83;101509.97;1043275;28;20295;-79
2022/05/26 00:03:07;;;;;;;11.15;8.73;;;;;;;13.62;89.09;101513.69;1043420;28;20302;-79
2022/05/26 00:03:41;;;;;;;10.10;7.32;;;;;;;13.64;89.37;101508.94;1043817;28;20302;-79
2022/05/26 00:04:12;;;;;;;8.90;7.80;;;;;;;13.57;89.61;101500.16;1042704;28;20354;-79
2022/05/26 00:04:44;;;;;;;8.48;7.05;;;;;;;13.56;89.75;101511.91;1042920;28;20299;-79
2022/05/26 00:05:16;;;;;;;11.38;7.68;;;;;;;13.54;90.65;101513.97;1039450;28;20390;-79
2022/05/26 00:05:48;;;;;;;8.05;7.25;;;;;;;13.56;90.57;101509.22;1039239;28;20299;-79
2022/05/26 00:06:21;;;;;;;14.52;7.65;;;;;;;13.55;89.92;101503.06;1042362;28;20298;-79
2022/05/26 00:06:53;;;;;;;8.38;7.55;;;;;;;13.57;89.74;101509.00;1039904;28;20303;-79
2022/05/26 00:07:24;;;;;;;8.98;8.07;;;;;;;13.55;89.42;101504.91;1039200;28;20311;-79
2022/05/26 00:07:56;;;;;;;16.90;8.02;;;;;;;13.55;90.10;101504.91;1039059;28;20311;-79
2022/05/26 00:08:28;;;;;;;9.10;7.32;;;;;;;13.58;90.14;101505.28;1039449;28;20319;-80
2022/05/26 00:09:00;;;;;;;16.92;7.68;;;;;;;13.61;90.59;101504.03;1043427;28;20299;-79
2022/05/26 00:09:32;;;;;;;10.50;7.68;;;;;;;13.63;90.64;101501.13;1042991;28;20299;-79
2022/05/26 00:10:03;;;;;;;12.63;9.30;;;;;;;13.58;90.87;101504.47;1043304;28;20314;-79
2022/05/26 00:10:35;;;;;;;8.60;7.78;;;;;;;13.57;89.93;101494.81;1046047;28;20302;-79
2022/05/26 00:11:16;;;;;;;10.38;9.38;;;;;;;13.61;90.47;101493.31;1047921;28;20294;-79
2022/05/26 00:11:47;;;;;;;12.10;8.75;;;;;;;13.56;90.66;101495.84;1041104;28;20347;-79
2022/05/26 00:12:19;;;;;;;10.20;9.18;;;;;;;13.64;90.15;101508.94;1043198;28;20302;-79
2022/05/26 00:12:51;;;;;;;13.68;9.23;;;;;;;13.65;90.13;101502.53;1042971;28;20319;-79
2022/05/26 00:13:23;;;;;;;9.95;8.98;;;;;;;13.65;90.16;101505.22;1043595;28;20342;-79
2022/05/26 00:13:55;;;;;;;14.45;9.70;;;;;;;13.65;89.75;101499.88;1043517;28;20314;-79
2022/05/26 00:14:27;;;;;;;9.13;8.20;;;;;;;13.68;90.15;101502.09;1043267;28;20314;-79
2022/05/26 00:14:58;;;;;;;9.95;8.73;;;;;;;13.68;89.97;101503.97;1039440;28;20300;-79
2022/05/26 00:15:31;;;;;;;10.70;8.05;;;;;;;13.62;90.85;101497.63;1038806;28;20300;-79
2022/05/26 00:16:04;;;;;;;22.95;9.90;;;;;;;13.63;90.26;101499.28;1034579;28;20304;-78
2022/05/26 00:16:43;;;;;;;13.73;9.18;;;;;;;13.65;90.39;101499.88;1031759;28;20312;-79
2022/05/26 00:17:15;;;;;;;11.15;9.35;;;;;;;13.66;90.41;101501.50;1032682;28;20370;-79
2022/05/26 00:17:46;;;;;;;14.82;9.13;;;;;;;13.72;90.66;101499.81;1037034;28;20304;-79
2022/05/26 00:18:18;;;;;;;12.50;8.95;;;;;;;13.73;89.67;101504.97;1036901;28;20346;-80
2022/05/26 00:18:50;;;;;;;12.48;9.02;;;;;;;13.72;89.86;101506.00;1040488;28;20307;-80
2022/05/26 00:19:21;;;;;;;13.30;9.73;;;;;;;13.69;90.17;101501.06;1039964;28;20343;-78
2022/05/26 00:19:53;;;;;;;11.75;10.02;;;;;;;13.71;90.57;101503.53;1036421;28;20351;-79
2022/05/26 00:20:25;;;;;;;10.50;9.40;;;;;;;13.69;90.99;101500.25;1039890;28;21519;-79
2022/05/26 00:20:57;;;;;;;15.35;9.77;;;;;;;13.72;90.00;101505.19;1040619;28;20300;-79
2022/05/26 00:21:28;;;;;;;11.23;9.45;;;;;;;13.68;90.61;101496.75;1043971;28;20306;-79
2022/05/26 00:22:00;;;;;;;14.05;10.13;;;;;;;13.72;90.23;101505.19;1044050;28;20982;-79
2022/05/26 00:22:34;;;;;;;14.50;10.25;;;;;;;13.73;90.41;101502.28;1044165;28;20302;-79
2022/05/26 00:23:06;;;;;;;18.80;10.93;;;;;;;13.70;90.15;101500.06;1039726;28;20302;-79
2022/05/26 00:23:37;;;;;;;13.50;9.35;;;;;;;13.72;89.76;101502.50;1036369;28;20308;-80
2022/05/26 00:24:09;;;;;;;12.55;9.48;;;;;;;13.72;90.42;101500.66;1040186;28;20283;-79
2022/05/26 00:24:41;;;;;;;9.40;8.43;;;;;;;13.72;90.27;101497.97;1040256;28;20045;-80
2022/05/26 00:25:12;;;;;;;15.05;10.15;;;;;;;13.73;90.13;101507.63;1040142;28;20303;-79
2022/05/26 00:25:44;;;;;;;12.93;9.15;;;;;;;13.69;89.65;101498.38;1040114;28;20296;-79
2022/05/26 00:26:15;;;;;;;12.48;10.20;;;;;;;13.70;90.10;101507.25;1039817;28;20314;-79
2022/05/26 00:26:47;;;;;;;9.90;8.98;;;;;;;13.73;89.99;101507.63;1040729;28;20869;-79
2022/05/26 00:27:19;;;;;;;12.05;10.15;;;;;;;13.74;90.38;101503.91;1037814;28;20335;-80
2022/05/26 00:27:50;;;;;;;14.57;9.52;;;;;;;13.75;89.99;101500.19;1039210;28;20319;-79
2022/05/26 00:28:22;;;;;;;11.15;9.93;;;;;;;13.74;90.04;101498.56;1039946;28;20300;-79
2022/05/26 00:28:54;;;;;;;15.60;9.60;;;;;;;13.74;90.29;101498.56;1037544;28;20297;-78
2022/05/26 00:29:25;;;;;;;11.32;9.02;;;;;;;13.71;89.92;101503.53;1036139;28;20315;-80
2022/05/26 00:29:57;;;;;;;10.57;9.52;;;;;;;13.73;90.48;101507.63;1039994;28;20296;-79
2022/05/26 00:30:29;;;;;;;11.85;10.25;;;;;;;13.63;90.77;101496.59;1039739;28;20338;-79
2022/05/26 00:31:00;;;;;;;14.90;9.75;;;;;;;13.67;90.86;101503.13;1040253;28;20658;-78
2022/05/26 00:31:32;;;;;;;11.20;9.13;;;;;;;13.70;90.87;101497.38;1044340;28;20832;-79
2022/05/26 00:32:04;;;;;;;10.38;9.50;;;;;;;13.73;91.44;101501.47;1044324;28;20808;-79
2022/05/26 00:32:36;;;;;;;11.30;9.57;;;;;;;13.69;90.87;101501.06;1043782;28;20303;-79
2022/05/26 00:33:09;;;;;;;11.68;9.30;;;;;;;13.72;91.23;101499.81;1044176;28;20295;-79
2022/05/26 00:33:41;;;;;;;13.70;9.02;;;;;;;13.72;91.38;101506.00;1039932;28;20304;-79
2022/05/26 00:34:12;;;;;;;15.48;8.68;;;;;;;13.72;90.48;101506.00;1039707;28;20296;-80
2022/05/26 00:34:44;;;;;;;17.98;9.88;;;;;;;13.75;91.02;101510.09;1040879;28;20301;-79
2022/05/26 00:35:16;;;;;;;13.32;10.43;;;;;;;13.76;91.36;101504.50;1041498;28;20343;-79
2022/05/26 00:35:47;;;;;;;13.40;9.65;;;;;;;13.74;90.53;101509.28;1040212;28;20821;-79
2022/05/26 00:36:37;;;;;;;12.85;9.18;;;;;;;13.68;90.91;101498.59;1043848;28;20298;-79
2022/05/26 00:37:10;;;;;;;14.32;8.82;;;;;;;13.70;90.45;101507.25;1041678;28;20418;-79
2022/05/26 00:37:44;;;;;;;14.55;9.88;;;;;;;13.73;91.28;101498.78;1039627;28;20045;-78
2022/05/26 00:38:16;;;;;;;12.80;9.48;;;;;;;13.72;90.58;101506.00;1039754;28;20308;-79
2022/05/26 00:38:48;;;;;;;15.00;9.40;;;;;;;13.76;90.60;101512.53;1043867;28;20291;-79
2022/05/26 00:39:22;;;;;;;13.13;9.68;;;;;;;13.76;91.12;101507.19;1043686;28;20310;-78
2022/05/26 00:39:54;;;;;;;11.07;9.32;;;;;;;13.77;90.78;101508.81;1043958;28;20717;-79
2022/05/26 00:40:25;;;;;;;11.65;8.43;;;;;;;13.72;90.46;101514.03;1043985;28;20303;-78
2022/05/26 00:41:05;;;;;;;9.82;8.15;;;;;;;13.75;90.62;101513.59;1043829;28;20345;-79
2022/05/26 00:41:43;;;;;;;10.98;9.00;;;;;;;13.75;90.70;101513.59;1041488;28;20299;-79
2022/05/26 00:42:14;;;;;;;13.80;9.07;;;;;;;13.74;90.61;101509.28;1039633;28;20358;-79
2022/05/26 00:42:46;;;;;;;13.73;9.60;;;;;;;13.69;91.53;101517.13;1035155;28;20309;-79
2022/05/26 00:43:17;;;;;;;14.25;8.55;;;;;;;13.66;90.92;101512.22;1033037;28;20339;-79
2022/05/26 00:43:49;;;;;;;15.10;9.82;;;;;;;13.72;91.01;101511.34;1036228;28;20322;-79
2022/05/26 00:44:22;;;;;;;12.93;8.80;;;;;;;13.75;90.83;101510.09;1036011;28;20446;-78
2022/05/26 00:44:53;;;;;;;9.70;8.70;;;;;;;13.77;90.21;101508.00;1040570;28;20307;-79
2022/05/26 00:45:29;;;;;;;9.80;8.50;;;;;;;13.76;90.33;101509.06;1043765;28;20843;-79
2022/05/26 00:46:07;;;;;;;13.02;8.90;;;;;;;13.73;91.26;101518.34;1040951;28;20304;-78
2022/05/26 00:46:44;;;;;;;11.18;9.30;;;;;;;13.73;90.45;101512.16;1035697;28;20630;-78
2022/05/26 00:47:19;;;;;;;10.13;9.13;;;;;;;13.76;90.42;101509.88;1039087;28;20057;-78
2022/05/26 00:47:51;;;;;;;9.23;8.32;;;;;;;13.78;90.70;101513.16;1042260;28;20296;-79
2022/05/26 00:48:36;;;;;;;14.32;9.40;;;;;;;13.79;90.71;101511.28;1044032;28;20347;-79
2022/05/26 00:49:14;;;;;;;14.75;9.30;;;;;;;13.79;90.76;101511.28;1047783;28;20807;-78
2022/05/26 00:49:54;;;;;;;12.70;9.00;;;;;;;13.79;90.08;101511.28;1043949;28;20654;-79
2022/05/26 00:50:28;;;;;;;11.55;9.20;;;;;;;13.82;90.73;101510.84;1048036;28;20791;-78
2022/05/26 00:51:01;;;;;;;10.60;9.52;;;;;;;13.73;90.43;101509.50;1048124;28;20422;-79
2022/05/26 00:51:36;;;;;;;10.27;9.00;;;;;;;13.75;90.55;101510.91;1046157;28;20808;-78
2022/05/26 00:52:12;;;;;;;14.57;9.52;;;;;;;13.79;90.50;101511.28;1043946;28;20299;-78
2022/05/26 00:53:16;;;;;;;11.45;10.10;;;;;;;13.80;91.17;101512.91;1039345;28;20364;-79
2022/05/26 00:53:52;;;;;;;9.60;8.32;;;;;;;13.72;90.69;101519.38;1036776;28;20691;-79
2022/05/26 00:54:25;;;;;;;15.30;8.30;;;;;;;13.77;90.83;101508.00;1041025;28;20335;-78
2022/05/26 00:55:01;;;;;;;10.82;9.40;;;;;;;13.76;91.67;101515.22;1039644;28;20308;-78
2022/05/26 00:55:38;;;;;;;11.45;9.32;;;;;;;13.70;91.10;101507.25;1042168;28;20033;-79
2022/05/26 00:56:20;;;;;;;16.95;9.70;;;;;;;13.71;91.15;101515.06;1039827;28;20307;-79
2022/05/26 00:56:57;;;;;;;10.90;9.35;;;;;;;13.76;91.45;101517.09;1038619;28;20304;-79
2022/05/26 00:57:33;;;;;;;11.80;9.48;;;;;;;13.76;91.14;101517.91;1035548;28;20792;-78
2022/05/26 00:58:09;;;;;;;12.77;9.48;;;;;;;13.79;91.36;101512.09;1038900;28;20725;-79
2022/05/26 00:58:42;;;;;;;10.95;8.68;;;;;;;13.76;92.00;101517.91;1035574;28;20308;-79
2022/05/26 00:59:36;;;;;;;12.43;9.88;;;;;;;13.74;91.47;101508.47;1027385;28;20429;-78
2022/05/26 01:00:11;;;;;;;11.88;8.23;;;;;;;13.77;91.01;101519.53;1031961;28;20297;-79
2022/05/26 01:00:44;;;;;;;13.27;8.48;;;;;;;13.76;91.88;101509.88;1035665;28;20301;-79
2022/05/26 01:01:16;;;;;;;14.88;10.10;;;;;;;13.75;91.44;101516.25;1043781;28;20295;-79
2022/05/26 01:01:48;;;;;;;14.55;10.02;;;;;;;13.76;91.18;101512.53;1040888;28;20303;-79
2022/05/26 01:02:22;;;;;;;10.98;9.65;;;;;;;13.74;91.72;101514.63;1043989;28;20307;-78
2022/05/26 01:03:07;;;;;;;14.85;9.40;;;;;;;13.72;91.12;101516.72;1044129;28;20295;-79
2022/05/26 01:03:43;;;;;;;13.15;9.90;;;;;;;13.75;91.33;101510.09;1042480;28;20338;-79
2022/05/26 01:04:18;;;;;;;12.70;8.82;;;;;;;13.69;91.75;101511.75;1040001;28;20701;-79
2022/05/26 01:04:53;;;;;;;15.70;9.70;;;;;;;13.72;91.32;101511.34;1039896;28;20292;-78
2022/05/26 01:05:30;;;;;;;18.23;10.43;;;;;;;13.74;91.61;101509.28;1041275;28;20296;-79
2022/05/26 01:06:08;;;;;;;11.10;9.60;;;;;;;13.75;92.04;101516.25;1039849;28;20649;-79
2022/05/26 01:06:49;;;;;;;13.70;10.18;;;;;;;13.74;91.89;101513.81;1035614;28;20314;-78
2022/05/26 01:07:24;;;;;;;14.23;10.60;;;;;;;13.75;92.15;101518.13;1032448;28;20297;-79
2022/05/26 01:07:56;;;;;;;12.65;10.23;;;;;;;13.76;91.38;101511.72;1038335;28;20076;-78
2022/05/26 01:08:52;;;;;;;12.00;9.32;;;;;;;13.64;91.93;101511.63;1035544;28;20296;-79
2022/05/26 01:09:23;;;;;;;9.85;8.45;;;;;;;13.64;91.76;101508.13;1039590;28;20378;-79
2022/05/26 01:09:56;;;;;;;14.70;9.75;;;;;;;13.68;91.53;101515.47;1039929;28;20646;-79
2022/05/26 01:10:27;;;;;;;15.77;11.23;;;;;;;13.68;91.75;101512.81;1043761;28;20669;-79
2022/05/26 01:10:59;;;;;;;11.13;10.00;;;;;;;13.57;92.30;101511.69;1043742;28;21903;-78
2022/05/26 01:11:33;;;;;;;14.15;10.48;;;;;;;13.60;92.26;101515.78;1044109;28;20784;-78
2022/05/26 01:12:06;;;;;;;13.75;10.10;;;;;;;13.55;92.22;101521.78;1039567;28;20813;-79
2022/05/26 01:12:37;;;;;;;13.23;9.68;;;;;;;13.56;92.98;101523.44;1036590;28;20778;-78
2022/05/26 01:13:09;;;;;;;15.80;11.02;;;;;;;13.59;92.73;101522.16;1035743;28;20818;-79
2022/05/26 01:13:47;;;;;;;16.42;10.38;;;;;;;13.58;93.38;101516.00;1029940;28;20653;-78
2022/05/26 01:14:23;;;;;;;15.70;10.10;;;;;;;13.58;92.65;101515.19;1037282;28;20375;-79
2022/05/26 01:14:58;;;;;;;13.05;10.70;;;;;;;13.62;92.80;101519.03;1037433;28;20300;-79
2022/05/26 01:15:35;;;;;;;15.23;10.88;;;;;;;13.64;93.19;101516.97;1037824;28;20300;-79
2022/05/26 01:16:42;;;;;;;16.45;10.15;;;;;;;13.58;92.94;101520.53;1042840;28;20303;-78
2022/05/26 01:17:28;;;;;;;15.98;10.85;;;;;;;13.58;93.09;101520.53;1039625;28;20937;-79
2022/05/26 01:18:09;;;;;;;16.23;12.10;;;;;;;13.63;93.26;101523.34;1038362;28;20315;-79
2022/05/26 01:19:00;;;;;;;12.93;10.75;;;;;;;13.62;93.10;101516.38;1035140;28;20343;-79
2022/05/26 01:19:45;;;;;;;13.38;10.88;;;;;;;13.67;93.63;101524.56;1043273;28;20041;-78
2022/05/26 01:20:54;;;;;;;21.33;11.07;;;;;;;13.68;93.47;101520.84;1047871;28;20193;-79
2022/05/26 01:21:35;;;;;;;13.05;10.73;;;;;;;13.68;92.67;101525.38;1047682;28;20298;-79
2022/05/26 01:22:41;;;;;;;15.88;11.30;;;;;;;13.74;93.02;101521.84;1047812;28;20341;-79
2022/05/26 01:23:40;;;;;;;18.60;11.02;;;;;;;13.67;93.27;101519.19;1048002;28;20041;-79
2022/05/26 01:24:26;;;;;;;13.27;10.98;;;;;;;13.63;92.98;101520.69;1048302;28;20293;-79
2022/05/26 01:25:30;;;;;;;16.05;12.00;;;;;;;13.66;93.73;101522.91;1048000;28;20341;-79
2022/05/26 01:26:09;;;;;;;18.33;12.95;;;;;;;13.67;94.10;101524.56;1035695;28;20375;-78
2022/05/26 01:26:59;;;;;;;14.60;12.20;;;;;;;13.63;92.95;101509.97;1034937;28;20300;-79
2022/05/26 01:27:40;;;;;;;14.07;12.60;;;;;;;13.58;93.68;101520.53;1035596;28;20797;-79
2022/05/26 01:28:36;;;;;;;17.10;12.25;;;;;;;13.60;94.01;101529.16;1031377;28;20309;-78
2022/05/26 01:29:38;;;;;;;15.10;11.57;;;;;;;13.51;93.94;101522.44;1036110;28;20050;-79
2022/05/26 01:30:28;;;;;;;;;;;;;;;13.57;93.98;101521.56;1041339;28;20355;-79
2022/05/26 01:31:43;;;;;;;13.63;12.23;;;;;;;13.59;94.64;101527.53;1043511;28;20018;-79
2022/05/26 01:32:14;;;;;;;18.30;13.80;;;;;;;13.61;94.09;101536.16;1039305;28;20358;-79
2022/05/26 01:33:27;;;;;;;15.85;13.32;;;;;;;13.65;93.92;101531.16;1041709;28;20315;-79
2022/05/26 01:34:05;;;;;;;18.77;13.25;;;;;;;13.68;94.01;101536.91;1039573;28;20303;-77
2022/05/26 01:34:58;;;;;;;15.20;12.82;;;;;;;13.65;94.55;101532.00;1044452;28;20287;-79
2022/05/26 01:35:37;;;;;;;22.30;14.20;;;;;;;13.63;94.32;101538.59;1043434;28;20346;-79
2022/05/26 01:36:26;;;;;;;17.20;14.50;;;;;;;13.62;94.50;101527.06;1039291;28;20296;-79
2022/05/26 01:37:17;;;;;;;23.55;13.93;;;;;;;13.65;94.46;101531.16;1039759;28;20857;-79
2022/05/26 01:38:03;;;;;;;22.55;14.23;;;;;;;13.62;94.87;101540.47;1041054;28;20298;-78
2022/05/26 01:38:55;;;;;;;16.63;13.82;;;;;;;13.58;95.17;101533.91;1040328;28;20127;-79
2022/05/26 01:39:54;;;;;;;18.50;14.20;;;;;;;13.57;95.30;101532.28;1039962;28;20367;-79
2022/05/26 01:40:29;;;;;;;18.75;14.57;;;;;;;13.53;95.61;101533.75;1042521;28;20339;-79
2022/05/26 01:41:15;;;;;;;21.58;14.57;;;;;;;13.57;95.42;101534.94;1040318;28;20300;-78
2022/05/26 01:42:00;;;;;;;20.95;14.98;;;;;;;13.48;95.39;101530.91;1039577;28;20296;-78
2022/05/26 01:42:36;;;;;;;19.52;14.95;;;;;;;13.54;94.91;101530.03;1035505;28;20316;-79
2022/05/26 01:43:10;;;;;;;23.92;16.88;;;;;;;13.53;95.65;101529.22;1039533;28;20299;-79
2022/05/26 01:43:48;;;;;;;23.10;16.23;;;;;;;13.52;95.64;101532.94;1039397;28;20318;-79
2022/05/26 01:44:27;;;;;;;22.38;17.55;;;;;;;13.53;95.84;101529.22;1037600;28;20315;-79
2022/05/26 01:45:23;;;;;;;24.70;16.85;;;;;;;13.52;95.57;101529.44;1042202;28;20296;-78
2022/05/26 01:46:00;;;;;;;26.23;18.02;;;;;;;13.56;95.05;101527.97;1039818;28;20659;-79
2022/05/26 01:46:39;;;;;;;23.70;16.25;;;;;;;13.56;95.61;101534.13;1039570;28;20327;-78
2022/05/26 01:47:27;;;;;;;23.48;16.58;;;;;;;13.51;95.61;101527.81;1034878;28;20292;-79
2022/05/26 01:48:03;;;;;;;17.27;15.57;;;;;;;13.49;95.14;101530.69;1039738;28;20296;-79
2022/05/26 01:49:06;;;;;;;23.90;17.35;;;;;;;13.56;95.54;101534.13;1039820;28;20296;-79
2022/05/26 01:49:44;;;;;;;22.65;17.88;;;;;;;13.49;95.07;101537.91;1031205;28;20693;-80
2022/05/26 01:50:25;;;;;;;20.38;15.63;;;;;;;13.53;95.86;101537.25;1036712;28;20301;-79
2022/05/26 01:51:03;;;;;;;21.70;15.75;;;;;;;13.57;96.02;101541.13;1043477;28;20429;-78
2022/05/26 01:51:41;;;;;;;20.70;16.23;;;;;;;13.58;95.61;101544.63;1039564;28;20128;-78
2022/05/26 01:52:16;;;;;;;20.77;16.20;;;;;;;13.59;95.87;101548.94;1039213;28;20393;-78
2022/05/26 01:53:23;;;;;;;19.08;16.40;;;;;;;13.59;95.14;101546.25;1035769;28;20296;-79
2022/05/26 01:54:19;;;;;;;17.23;15.43;;;;;;;13.58;95.46;101548.13;1036440;28;20336;-78
2022/05/26 01:54:57;;;;;;;18.80;15.52;;;;;;;13.52;95.70;101545.50;1043193;28;20307;-78
2022/05/26 01:55:42;;;;;;;21.30;16.13;;;;;;;13.52;95.86;101543.66;1043649;28;20291;-79
2022/05/26 01:56:27;;;;;;;30.55;18.38;;;;;;;13.53;95.81;101547.13;1038937;28;20296;-79
2022/05/26 01:57:07;;;;;;;26.80;16.85;;;;;;;13.55;96.28;101548.56;1035799;28;20807;-79
2022/05/26 01:58:03;;;;;;;24.17;16.95;;;;;;;13.56;95.97;101552.06;1035473;28;20293;-79
2022/05/26 01:58:38;;;;;;;23.23;17.38;;;;;;;13.53;95.76;101555.16;1036239;28;20291;-78
2022/05/26 01:59:37;;;;;;;22.40;16.58;;;;;;;13.51;96.56;101552.72;1040075;28;20307;-79
2022/05/26 02:00:12;;;;;;;19.83;16.38;;;;;;;13.52;96.79;101553.53;1040224;28;20292;-78
2022/05/26 02:00:45;;;;;;;24.15;16.17;;;;;;;13.52;96.38;101549.00;1043854;28;20295;-79
2022/05/26 02:01:20;;;;;;;28.38;17.45;;;;;;;13.51;95.88;101551.88;1043429;28;20306;-78
2022/05/26 02:01:56;;;;;;;21.67;18.25;;;;;;;13.52;96.04;101553.53;1041130;28;20291;-78
2022/05/26 02:02:31;;;;;;;22.08;16.80;;;;;;;13.51;96.31;101552.72;1042756;28;20354;-79
2022/05/26 02:03:12;;;;;;;19.35;17.35;;;;;;;13.54;96.21;101551.44;1039748;28;20299;-78
2022/05/26 02:03:47;;;;;;;22.92;15.43;;;;;;;13.54;96.28;101551.44;1042517;28;20303;-79
2022/05/26 02:04:53;;;;;;;21.92;16.95;;;;;;;13.51;96.20;101550.03;1042279;28;20288;-78
2022/05/26 02:05:30;;;;;;;20.85;17.20;;;;;;;13.54;96.49;101562.16;1046011;28;20306;-79
2022/05/26 02:06:13;;;;;;;19.42;15.35;;;;;;;13.49;96.48;101553.97;1044420;28;20306;-79
2022/05/26 02:06:49;;;;;;;22.80;17.25;;;;;;;13.49;96.60;101556.66;1039311;28;20300;-79
2022/05/26 02:07:41;;;;;;;24.10;18.05;;;;;;;13.52;95.88;101561.56;1039510;28;20654;-78
2022/05/26 02:08:17;;;;;;;18.95;16.15;;;;;;;13.49;96.69;101556.66;1039484;28;20300;-78
2022/05/26 02:09:11;;;;;;;24.45;16.92;;;;;;;13.46;96.61;101559.75;1039372;28;20300;-79
2022/05/26 02:09:44;;;;;;;20.80;15.23;;;;;;;13.41;96.86;101559.56;1035323;28;20699;-78
2022/05/26 02:10:20;;;;;;;19.60;16.40;;;;;;;13.48;96.79;101565.72;1039746;28;20300;-79
2022/05/26 02:10:55;;;;;;;18.92;16.85;;;;;;;13.45;96.54;101558.13;1035616;28;20664;-79
2022/05/26 02:11:26;;;;;;;22.63;17.27;;;;;;;13.45;96.61;101560.78;1037050;28;20341;-79
2022/05/26 02:12:06;;;;;;;21.55;16.50;;;;;;;13.42;96.97;101564.72;1039188;28;20310;-79
2022/05/26 02:12:41;;;;;;;19.45;16.08;;;;;;;13.42;97.34;101558.53;1039051;28;20311;-79
2022/05/26 02:13:20;;;;;;;22.85;16.83;;;;;;;13.40;96.58;101557.94;1039765;28;20662;-79
2022/05/26 02:13:58;;;;;;;20.27;16.58;;;;;;;13.30;97.25;101561.91;1039242;28;20705;-79
2022/05/26 02:14:34;;;;;;;26.20;16.90;;;;;;;13.32;97.31;101563.56;1038094;28;20312;-77
2022/05/26 02:15:13;;;;;;;18.70;15.48;;;;;;;13.40;97.09;101566.78;1038314;28;20300;-79
2022/05/26 02:15:52;;;;;;;24.25;17.02;;;;;;;13.42;97.76;101559.38;1037533;28;20340;-78
2022/05/26 02:16:39;;;;;;;23.35;17.63;;;;;;;13.40;97.36;101565.97;1038467;28;20302;-79
2022/05/26 02:17:17;;;;;;;23.02;17.00;;;;;;;13.45;97.52;101558.13;1043555;28;20777;-79
2022/05/26 02:17:56;;;;;;;24.13;17.83;;;;;;;13.45;97.22;101571.50;1047910;28;20337;-79
2022/05/26 02:18:35;;;;;;;27.52;16.98;;;;;;;13.45;97.33;101560.78;1043891;28;20299;-79
2022/05/26 02:19:22;;;;;;;23.23;17.02;;;;;;;13.43;97.23;101568.22;1039698;28;20291;-79
2022/05/26 02:20:19;;;;;;;19.35;16.73;;;;;;;13.45;96.84;101568.81;1035748;28;20301;-79
2022/05/26 02:21:05;;;;;;;20.60;16.20;;;;;;;13.43;96.68;101568.22;1032533;28;20305;-78
2022/05/26 02:22:09;;;;;;;20.75;15.88;;;;;;;13.46;97.10;101565.13;1035388;28;20312;-78
2022/05/26 02:22:51;;;;;;;24.55;16.48;;;;;;;13.50;96.69;101561.78;1032453;28;20781;-78
2022/05/26 02:23:32;;;;;;;23.25;17.02;;;;;;;13.46;96.79;101570.47;1033874;28;20320;-78
2022/05/26 02:24:33;;;;;;;22.25;16.27;;;;;;;13.39;97.02;101567.00;1031322;28;20297;-78
2022/05/26 02:25:08;;;;;;;20.92;16.80;;;;;;;13.40;97.21;101561.41;1036486;28;20058;-78
2022/05/26 02:25:40;;;;;;;21.05;15.80;;;;;;;13.41;97.10;101567.59;1035905;28;20523;-78
2022/05/26 02:26:13;;;;;;;22.42;16.85;;;;;;;13.34;96.98;101564.97;1035464;28;20316;-78
2022/05/26 02:26:44;;;;;;;25.20;16.35;;;;;;;13.38;97.24;101568.84;1038953;28;20299;-79
2022/05/26 02:27:16;;;;;;;19.52;17.45;;;;;;;13.40;97.47;101560.59;1043693;28;20314;-78
2022/05/26 02:27:51;;;;;;;23.73;17.50;;;;;;;13.41;96.86;101570.28;1047616;28;20299;-78
2022/05/26 02:28:23;;;;;;;24.15;17.15;;;;;;;13.38;97.30;101562.69;1045004;28;20295;-78
2022/05/26 02:29:53;;;;;;;21.17;16.52;;;;;;;13.33;97.47;101568.69;1038634;28;20300;-78
2022/05/26 02:30:30;;;;;;;25.73;16.98;;;;;;;13.36;96.88;101568.25;1044415;28;20045;-78
2022/05/26 02:31:04;;;;;;;20.35;17.50;;;;;;;13.38;97.60;101573.38;1045698;28;20036;-78
2022/05/26 02:31:37;;;;;;;24.70;16.20;;;;;;;13.34;97.92;101572.19;1043507;28;20523;-78
2022/05/26 02:32:10;;;;;;;23.73;17.27;;;;;;;13.39;97.61;101567.00;1043885;28;20773;-79
2022/05/26 02:32:45;;;;;;;19.08;16.23;;;;;;;13.40;97.38;101574.81;1040958;28;20299;-78
2022/05/26 02:33:17;;;;;;;23.05;17.42;;;;;;;13.41;97.73;101578.28;1044279;28;20305;-78
2022/05/26 02:33:51;;;;;;;28.92;17.67;;;;;;;13.40;97.36;101566.78;1043286;28;20314;-78
2022/05/26 02:34:24;;;;;;;22.67;17.50;;;;;;;13.45;97.26;101575.00;1040870;28;20314;-78
2022/05/26 02:34:58;;;;;;;21.70;16.90;;;;;;;13.40;97.49;101573.97;1039579;28;20295;-78
2022/05/26 02:35:33;;;;;;;20.65;17.60;;;;;;;13.41;97.65;101572.94;1036599;28;20846;-78
2022/05/26 02:36:05;;;;;;;19.77;15.52;;;;;;;13.42;96.89;101569.22;1040662;28;20300;-78
2022/05/26 02:36:37;;;;;;;21.38;17.38;;;;;;;13.43;97.10;101570.91;1044986;28;20299;-78
2022/05/26 02:37:09;;;;;;;22.48;17.92;;;;;;;13.45;97.38;101579.53;1047687;28;20911;-78
2022/05/26 02:37:42;;;;;;;21.23;17.50;;;;;;;13.46;97.13;101570.47;1046630;28;20740;-78
2022/05/26 02:38:21;;;;;;;21.63;16.85;;;;;;;13.49;97.37;101578.88;1042223;28;20815;-78
2022/05/26 02:38:53;;;;;;;20.83;17.02;;;;;;;13.49;97.20;101578.88;1043129;28;20387;-78
2022/05/26 02:39:25;;;;;;;24.33;17.05;;;;;;;13.49;96.81;101570.84;1045460;28;20346;-78
2022/05/26 02:39:57;;;;;;;22.90;17.17;;;;;;;13.51;96.53;101576.81;1043271;28;20303;-78
2022/05/26 02:40:29;;;;;;;21.05;17.77;;;;;;;13.48;97.10;101577.25;1044057;28;20382;-78
2022/05/26 02:41:01;;;;;;;27.48;17.90;;;;;;;13.46;96.64;101571.28;1042793;28;20295;-78
2022/05/26 02:41:33;;;;;;;23.33;17.70;;;;;;;13.48;96.52;101579.09;1042680;28;20295;-78
2022/05/26 02:42:05;;;;;;;23.52;16.90;;;;;;;13.42;96.58;101574.59;1043390;28;20378;-79
2022/05/26 02:42:52;;;;;;;25.77;17.38;;;;;;;13.39;96.61;101572.34;1042765;28;20387;-78
2022/05/26 02:43:27;;;;;;;23.98;17.58;;;;;;;13.42;96.67;101569.22;1042525;28;20309;-79
2022/05/26 02:43:59;;;;;;;23.20;16.63;;;;;;;13.44;97.15;101577.91;1039407;28;20303;-79
2022/05/26 02:44:32;;;;;;;29.65;17.50;;;;;;;13.46;96.78;101571.28;1039455;28;20296;-79
2022/05/26 02:45:04;;;;;;;27.58;17.65;;;;;;;13.45;97.45;101568.81;1036786;28;20293;-79
2022/05/26 02:46:13;;;;;;;21.33;17.27;;;;;;;13.46;97.33;101575.81;1035585;28;20315;-78
2022/05/26 02:47:17;;;;;;;23.30;17.48;;;;;;;13.42;97.07;101575.44;1040929;28;20288;-79
2022/05/26 02:48:20;;;;;;;22.67;15.63;;;;;;;13.27;97.81;101578.41;1042915;28;20653;-79
2022/05/26 02:49:17;;;;;;;30.17;18.90;;;;;;;13.39;97.85;101578.50;1044776;28;20788;-79
2022/05/26 02:49:56;;;;;;;23.05;16.30;;;;;;;13.37;97.90;101582.44;1043159;28;20299;-79
2022/05/26 02:50:28;;;;;;;26.10;16.65;;;;;;;13.37;97.33;101577.09;1039467;28;20855;-79
2022/05/26 02:51:05;;;;;;;28.65;17.08;;;;;;;13.34;96.89;101578.34;1039169;28;20691;-79
2022/05/26 02:51:37;;;;;;;18.45;16.40;;;;;;;13.34;97.81;101572.19;1041228;28;20300;-79
2022/05/26 02:52:29;;;;;;;21.30;15.90;;;;;;;13.35;97.42;101584.53;1043776;28;20401;-78
2022/05/26 02:53:06;;;;;;;20.98;15.43;;;;;;;13.33;97.13;101582.06;1046176;28;20293;-79
2022/05/26 02:53:44;;;;;;;22.15;17.63;;;;;;;13.32;97.39;101580.44;1037051;28;20304;-79
2022/05/26 02:54:26;;;;;;;21.33;15.85;;;;;;;13.29;97.85;101587.03;1035230;28;20374;-79
2022/05/26 02:55:06;;;;;;;20.95;16.25;;;;;;;13.29;97.75;101580.88;1031350;28;20290;-79
2022/05/26 02:55:47;;;;;;;24.42;16.33;;;;;;;13.32;97.45;101584.97;1035181;28;20305;-79
2022/05/26 02:56:41;;;;;;;22.52;17.70;;;;;;;13.19;97.85;101586.69;1039227;28;20044;-79
2022/05/26 02:57:15;;;;;;;27.67;17.08;;;;;;;13.22;98.51;101582.78;1039722;28;20040;-78